Time;durP1;ratioP1;P1;durP2;ratioP2;P2;SDS_P1;SDS_P2;PMS_P1;PMS_P2;Temp;Humidity;BMP_temperature;BMP_pressure;BME280_temperature;BME280_humidity;BME280_pressure;Samples;Min_cycle;Max_cycle;Signal;HPM_P1;HPM_P2
2023/03/21 00:00:57;;;;;;;98.85;42.92;;;8.30;99.90;;;;;;5082148;28;20055;-71
2023/03/21 00:03:23;;;;;;;93.18;43.15;;;8.30;99.90;;;;;;5082099;28;20013;-71
2023/03/21 00:05:52;;;;;;;105.95;45.45;;;8.30;99.90;;;;;;5081207;28;20029;-70
2023/03/21 00:08:18;;;;;;;101.75;42.63;;;8.30;99.90;;;;;;5080708;28;20095;-70
2023/03/21 00:10:44;;;;;;;98.03;43.17;;;8.40;99.90;;;;;;5082079;28;20034;-71
2023/03/21 00:13:14;;;;;;;99.32;40.05;;;8.30;99.90;;;;;;5082568;28;20044;-71
2023/03/21 00:15:53;;;;;;;107.47;45.25;;;8.30;99.90;;;;;;5082093;28;20036;-71
2023/03/21 00:18:21;;;;;;;100.30;43.10;;;8.30;99.90;;;;;;5081442;28;20040;-70
2023/03/21 00:21:01;;;;;;;104.82;46.28;;;8.30;99.90;;;;;;5080645;28;20051;-70
2023/03/21 00:23:31;;;;;;;113.65;47.08;;;8.30;99.90;;;;;;5081365;28;20390;-70
2023/03/21 00:25:58;;;;;;;96.38;41.42;;;8.40;99.90;;;;;;5080535;28;20025;-71
2023/03/21 00:28:24;;;;;;;107.53;45.92;;;8.40;99.90;;;;;;5081462;28;20024;-71
2023/03/21 00:30:50;;;;;;;105.18;46.05;;;8.40;99.90;;;;;;5080625;28;20523;-70
2023/03/21 00:33:19;;;;;;;98.10;42.00;;;8.40;99.90;;;;;;5081518;28;20021;-70
2023/03/21 00:35:46;;;;;;;109.00;44.45;;;8.40;99.90;;;;;;5081285;28;20012;-70
2023/03/21 00:38:13;;;;;;;104.68;46.50;;;8.40;99.90;;;;;;5081094;28;20024;-70
2023/03/21 00:40:39;;;;;;;108.05;46.15;;;8.40;99.90;;;;;;5080921;28;20433;-70
2023/03/21 00:43:05;;;;;;;95.85;43.20;;;8.40;99.90;;;;;;5081625;28;20036;-71
2023/03/21 00:45:31;;;;;;;113.43;46.40;;;8.40;99.90;;;;;;5081753;28;20032;-70
2023/03/21 00:47:57;;;;;;;103.32;44.58;;;8.40;99.90;;;;;;5080818;28;20119;-70
2023/03/21 00:50:23;;;;;;;101.15;43.95;;;8.40;99.90;;;;;;5081392;28;20465;-70
2023/03/21 00:52:48;;;;;;;93.60;42.65;;;8.40;99.90;;;;;;5080119;28;20043;-71
2023/03/21 00:55:16;;;;;;;100.22;43.45;;;8.40;99.90;;;;;;5079914;28;20028;-72
2023/03/21 00:57:44;;;;;;;101.82;43.90;;;8.40;99.90;;;;;;5081138;28;20032;-71
2023/03/21 01:00:12;;;;;;;102.78;43.53;;;8.40;99.90;;;;;;5081542;28;20020;-71
2023/03/21 01:02:54;;;;;;;101.32;43.15;;;8.40;99.90;;;;;;5081336;28;20099;-71
2023/03/21 01:08:11;;;;;;;86.78;40.65;;;8.40;99.90;;;;;;5081220;28;20023;-71
2023/03/21 01:10:41;;;;;;;99.07;42.90;;;8.40;99.90;;;;;;5080153;28;20025;-70
2023/03/21 01:13:08;;;;;;;94.25;41.78;;;8.40;99.90;;;;;;5080770;28;20039;-71
2023/03/21 01:15:35;;;;;;;101.65;44.70;;;8.40;99.90;;;;;;5080160;28;20048;-71
2023/03/21 01:18:02;;;;;;;87.78;39.70;;;8.40;99.90;;;;;;5080880;28;20036;-71
2023/03/21 01:20:28;;;;;;;85.85;36.50;;;8.50;99.90;;;;;;5079594;28;20551;-71
2023/03/21 01:22:54;;;;;;;89.65;41.40;;;8.50;99.90;;;;;;5079306;28;20039;-70
2023/03/21 01:25:19;;;;;;;100.68;41.22;;;8.40;99.90;;;;;;5080765;28;20401;-71
2023/03/21 01:27:45;;;;;;;90.38;38.95;;;8.40;99.90;;;;;;5080982;28;20028;-71
2023/03/21 01:30:11;;;;;;;84.07;38.25;;;8.50;99.90;;;;;;5080977;28;20103;-72
2023/03/21 01:32:37;;;;;;;87.05;41.15;;;8.50;99.90;;;;;;5081064;28;20029;-72
2023/03/21 01:35:03;;;;;;;93.32;41.72;;;8.50;99.90;;;;;;5080077;28;20033;-71
2023/03/21 01:37:29;;;;;;;84.25;38.90;;;8.50;99.90;;;;;;5080589;28;20037;-71
2023/03/21 01:39:55;;;;;;;93.88;40.78;;;8.50;99.90;;;;;;5080458;28;20020;-72
2023/03/21 01:42:20;;;;;;;83.28;38.15;;;8.50;99.90;;;;;;5078894;28;20075;-72
2023/03/21 01:44:57;;;;;;;81.80;37.97;;;8.50;99.90;;;;;;5079041;28;20036;-71
2023/03/21 01:47:24;;;;;;;81.70;39.30;;;8.50;99.90;;;;;;5078897;28;20036;-70
2023/03/21 01:49:56;;;;;;;87.05;38.78;;;8.50;99.90;;;;;;5079997;28;20020;-71
2023/03/21 01:52:29;;;;;;;84.45;39.10;;;8.50;99.90;;;;;;5080100;28;20107;-71
2023/03/21 01:54:56;;;;;;;79.63;37.20;;;8.50;99.90;;;;;;5080180;28;20025;-70
2023/03/21 01:57:31;;;;;;;78.55;37.72;;;8.50;99.90;;;;;;5080514;28;20052;-72
2023/03/21 01:59:58;;;;;;;75.38;33.50;;;8.50;99.90;;;;;;5079308;28;20036;-71
2023/03/21 02:02:27;;;;;;;79.60;37.00;;;8.50;99.90;;;;;;5078923;28;20035;-70
2023/03/21 02:04:57;;;;;;;80.28;36.35;;;8.50;99.90;;;;;;5080064;28;20571;-70
2023/03/21 02:07:34;;;;;;;81.82;38.25;;;8.50;99.90;;;;;;5078362;28;20058;-71
2023/03/21 02:10:06;;;;;;;81.47;38.15;;;8.50;99.90;;;;;;5080135;28;20028;-72
2023/03/21 02:12:32;;;;;;;73.13;33.67;;;8.60;99.90;;;;;;5079260;28;20029;-71
2023/03/21 02:14:58;;;;;;;78.78;37.25;;;8.60;99.90;;;;;;5079806;28;20132;-71
2023/03/21 02:17:24;;;;;;;76.43;34.97;;;8.60;99.90;;;;;;5080135;28;20706;-71
2023/03/21 02:20:13;;;;;;;79.97;36.70;;;8.60;99.90;;;;;;5078870;28;20048;-72
2023/03/21 02:22:39;;;;;;;77.70;34.75;;;8.60;99.90;;;;;;5080014;28;20021;-71
2023/03/21 02:25:38;;;;;;;81.63;37.28;;;8.50;99.90;;;;;;5080336;28;20051;-69
2023/03/21 02:28:22;;;;;;;91.25;39.25;;;8.60;99.90;;;;;;5080375;28;20033;-70
2023/03/21 02:31:09;;;;;;;87.88;37.97;;;8.60;99.90;;;;;;5078678;28;20115;-70
2023/03/21 02:33:35;;;;;;;90.72;39.80;;;8.60;99.90;;;;;;5078798;28;20047;-71
2023/03/21 02:36:13;;;;;;;103.68;42.15;;;8.60;99.90;;;;;;5078489;28;20029;-70
2023/03/21 02:38:47;;;;;;;90.53;39.33;;;8.60;99.90;;;;;;5078349;28;20021;-71
2023/03/21 02:41:40;;;;;;;100.90;42.83;;;8.60;99.90;;;;;;5080130;28;20023;-71
2023/03/21 02:44:18;;;;;;;105.68;41.42;;;8.60;99.90;;;;;;5078719;28;20036;-70
2023/03/21 02:47:00;;;;;;;99.05;41.60;;;8.60;99.90;;;;;;5079857;28;20024;-70
2023/03/21 02:49:37;;;;;;;94.78;36.63;;;8.60;99.90;;;;;;5078057;28;20044;-70
2023/03/21 02:52:05;;;;;;;120.03;45.63;;;8.60;99.90;;;;;;5079843;28;20021;-70
2023/03/21 02:54:33;;;;;;;112.70;45.63;;;8.60;99.90;;;;;;5079514;28;20028;-71
2023/03/21 02:57:02;;;;;;;124.63;48.38;;;8.60;99.90;;;;;;5079799;28;20043;-72
2023/03/21 02:59:28;;;;;;;132.35;50.17;;;8.60;99.90;;;;;;5079080;28;20115;-70
2023/03/21 03:01:55;;;;;;;130.23;49.78;;;8.60;99.90;;;;;;5079859;28;20029;-71
2023/03/21 03:04:26;;;;;;;126.80;51.42;;;8.60;99.90;;;;;;5079523;28;20028;-70
2023/03/21 03:06:51;;;;;;;137.10;53.75;;;8.60;99.90;;;;;;5079664;28;20021;-70
2023/03/21 03:09:42;;;;;;;141.45;55.80;;;8.60;99.90;;;;;;5078447;28;20031;-70
2023/03/21 03:12:56;;;;;;;132.43;52.30;;;8.70;99.90;;;;;;5080457;28;20450;-70
2023/03/21 03:15:44;;;;;;;125.05;52.65;;;8.70;99.90;;;;;;5086533;28;20039;-70
2023/03/21 03:18:31;;;;;;;125.63;49.13;;;8.70;99.90;;;;;;5079699;28;20024;-70
2023/03/21 03:21:25;;;;;;;123.40;52.03;;;8.70;99.90;;;;;;5082247;28;20047;-70
2023/03/21 03:24:01;;;;;;;129.18;50.95;;;8.70;99.90;;;;;;5082132;28;20064;-70
2023/03/21 03:26:53;;;;;;;127.85;48.45;;;8.70;99.90;;;;;;5082775;28;20054;-70
2023/03/21 03:29:20;;;;;;;141.65;53.65;;;8.70;99.90;;;;;;5082480;28;20032;-70
2023/03/21 03:32:04;;;;;;;153.57;55.28;;;8.70;99.90;;;;;;5081194;28;20028;-70
2023/03/21 03:34:33;;;;;;;130.48;53.20;;;8.70;99.90;;;;;;5080731;28;20170;-69
2023/03/21 03:37:04;;;;;;;131.07;51.92;;;8.70;99.90;;;;;;5081021;28;20039;-70
2023/03/21 03:39:40;;;;;;;142.80;55.45;;;8.70;99.90;;;;;;5083175;28;20038;-70
2023/03/21 03:42:20;;;;;;;133.68;52.67;;;8.70;99.90;;;;;;5082562;28;20040;-70
2023/03/21 03:44:47;;;;;;;142.23;55.92;;;8.70;99.90;;;;;;5082652;28;20477;-70
2023/03/21 03:47:25;;;;;;;144.68;53.13;;;8.70;99.90;;;;;;5083508;28;20017;-71
2023/03/21 03:50:08;;;;;;;141.88;53.80;;;8.70;99.90;;;;;;5081630;28;20028;-70
2023/03/21 03:52:40;;;;;;;134.43;51.70;;;8.70;99.90;;;;;;5082429;28;20025;-71
2023/03/21 03:55:08;;;;;;;142.68;53.15;;;8.70;99.90;;;;;;5083249;28;20032;-70
2023/03/21 03:57:34;;;;;;;153.77;55.67;;;8.70;99.90;;;;;;5081325;28;21509;-70
2023/03/21 03:59:59;;;;;;;142.45;51.85;;;8.70;99.90;;;;;;5082043;28;20084;-70
2023/03/21 04:02:25;;;;;;;142.93;53.38;;;8.70;99.90;;;;;;5082228;28;20033;-70
2023/03/21 04:04:52;;;;;;;142.70;53.92;;;8.70;99.90;;;;;;5083193;28;20079;-70
2023/03/21 04:07:20;;;;;;;138.68;54.00;;;8.70;99.90;;;;;;5083017;28;20484;-70
2023/03/21 04:09:45;;;;;;;147.48;52.67;;;8.80;99.90;;;;;;5082608;28;20458;-70
2023/03/21 04:12:12;;;;;;;151.60;56.60;;;8.70;99.90;;;;;;5083204;28;20039;-70
2023/03/21 04:14:38;;;;;;;145.25;53.58;;;8.70;99.90;;;;;;5082898;28;20073;-72
2023/03/21 04:17:03;;;;;;;149.20;54.75;;;8.80;99.90;;;;;;5083468;28;20039;-70
2023/03/21 04:19:29;;;;;;;153.77;57.28;;;8.80;99.90;;;;;;5083248;28;20083;-71
2023/03/21 04:21:54;;;;;;;155.48;59.78;;;8.70;99.90;;;;;;5082944;28;20035;-71
2023/03/21 04:24:21;;;;;;;149.00;55.13;;;8.80;99.90;;;;;;5082628;28;20049;-71
2023/03/21 04:26:46;;;;;;;141.55;54.60;;;8.80;99.90;;;;;;5082391;28;20104;-71
2023/03/21 04:29:12;;;;;;;157.63;55.97;;;8.80;99.90;;;;;;5081430;28;20446;-71
2023/03/21 04:31:40;;;;;;;134.20;53.55;;;8.80;99.90;;;;;;5082573;28;20027;-71
2023/03/21 04:34:08;;;;;;;128.05;48.13;;;8.80;99.90;;;;;;5081343;28;20092;-72
2023/03/21 04:36:37;;;;;;;126.00;47.38;;;8.80;99.90;;;;;;5082804;28;20074;-71
2023/03/21 04:39:07;;;;;;;126.57;49.95;;;8.80;99.90;;;;;;5082403;28;20017;-71
2023/03/21 04:41:33;;;;;;;100.85;38.08;;;8.80;99.90;;;;;;5081375;28;20063;-72
2023/03/21 04:43:58;;;;;;;130.43;49.95;;;8.80;99.90;;;;;;5081257;28;20040;-70
2023/03/21 04:46:24;;;;;;;127.15;47.78;;;8.80;99.90;;;;;;5082009;28;20031;-71
2023/03/21 04:48:50;;;;;;;123.72;48.58;;;8.80;99.90;;;;;;5081327;28;20048;-71
2023/03/21 04:51:15;;;;;;;138.00;49.92;;;8.80;99.90;;;;;;5082556;28;20060;-70
2023/03/21 04:53:44;;;;;;;127.55;49.15;;;8.80;99.90;;;;;;5081614;28;20115;-72
2023/03/21 04:56:10;;;;;;;126.32;46.65;;;8.80;99.90;;;;;;5082041;28;20396;-72
2023/03/21 04:58:36;;;;;;;130.77;46.08;;;8.80;99.90;;;;;;5082572;28;20490;-71
2023/03/21 05:01:04;;;;;;;133.43;49.13;;;8.80;99.90;;;;;;5082536;28;20028;-72
2023/03/21 05:03:33;;;;;;;141.30;49.83;;;8.80;99.90;;;;;;5081730;28;20023;-71
2023/03/21 05:06:02;;;;;;;152.73;52.50;;;8.80;99.90;;;;;;5081630;28;20032;-72
2023/03/21 05:08:28;;;;;;;162.25;53.35;;;8.80;99.90;;;;;;5080549;28;20032;-69
2023/03/21 05:10:53;;;;;;;159.27;52.92;;;8.80;99.90;;;;;;5081838;28;20024;-71
2023/03/21 05:13:19;;;;;;;157.88;53.92;;;8.80;99.90;;;;;;5082002;28;20350;-70
2023/03/21 05:15:45;;;;;;;165.07;54.85;;;8.90;99.90;;;;;;5081772;28;20028;-71
2023/03/21 05:18:10;;;;;;;182.05;57.85;;;9.00;99.90;;;;;;5082030;28;20031;-71
2023/03/21 05:20:41;;;;;;;158.68;51.63;;;8.90;99.90;;;;;;5082018;28;20496;-71
2023/03/21 05:23:09;;;;;;;160.80;53.70;;;8.90;99.90;;;;;;5080222;28;20058;-71
2023/03/21 05:25:36;;;;;;;157.60;56.88;;;8.90;99.90;;;;;;5081503;28;20758;-71
2023/03/21 05:28:03;;;;;;;151.85;53.67;;;8.90;99.90;;;;;;5081809;28;20024;-72
2023/03/21 05:30:29;;;;;;;164.90;54.90;;;8.90;99.90;;;;;;5080328;28;20020;-70
2023/03/21 05:32:55;;;;;;;170.63;58.20;;;8.90;99.90;;;;;;5081823;28;20048;-71
2023/03/21 05:35:20;;;;;;;181.77;60.00;;;8.90;99.90;;;;;;5081575;28;20462;-71
2023/03/21 05:37:46;;;;;;;182.23;58.50;;;8.90;99.90;;;;;;5081493;28;20052;-72
2023/03/21 05:40:12;;;;;;;185.45;58.10;;;8.90;99.90;;;;;;5080504;28;20055;-72
2023/03/21 05:42:37;;;;;;;171.07;57.30;;;9.00;99.90;;;;;;5080764;28;20044;-71
2023/03/21 05:45:03;;;;;;;180.10;58.40;;;9.00;99.90;;;;;;5081666;28;20056;-72
2023/03/21 05:47:29;;;;;;;182.73;60.53;;;9.00;99.90;;;;;;5081588;28;20024;-71
2023/03/21 05:49:55;;;;;;;178.80;59.25;;;9.00;99.90;;;;;;5081465;28;20404;-70
2023/03/21 05:52:20;;;;;;;188.40;60.53;;;9.00;99.90;;;;;;5079443;28;20050;-69
2023/03/21 05:54:47;;;;;;;178.30;62.35;;;9.00;99.90;;;;;;5081272;28;20070;-71
2023/03/21 05:57:12;;;;;;;202.93;63.97;;;9.00;99.90;;;;;;5081687;28;20028;-71
2023/03/21 05:59:38;;;;;;;173.82;59.55;;;9.00;99.90;;;;;;5081544;28;20021;-71
2023/03/21 06:02:03;;;;;;;162.50;58.10;;;9.00;99.90;;;;;;5080239;28;20016;-71
2023/03/21 06:04:29;;;;;;;178.13;61.47;;;9.10;99.90;;;;;;5080986;28;20075;-70
2023/03/21 06:06:55;;;;;;;179.32;61.63;;;9.00;99.90;;;;;;5081135;28;20025;-70
2023/03/21 06:09:21;;;;;;;161.95;55.28;;;9.00;99.90;;;;;;5080010;28;20036;-70
2023/03/21 06:11:50;;;;;;;172.50;57.53;;;9.10;99.90;;;;;;5081166;28;20040;-70
2023/03/21 06:14:16;;;;;;;175.93;61.05;;;9.10;99.90;;;;;;5079939;28;20039;-71
2023/03/21 06:16:42;;;;;;;172.68;60.30;;;9.10;99.90;;;;;;5079741;28;20462;-71
2023/03/21 06:19:08;;;;;;;158.38;56.85;;;9.10;99.90;;;;;;5081361;28;20072;-71
2023/03/21 06:21:33;;;;;;;169.43;59.45;;;9.10;99.90;;;;;;5081336;28;20028;-70
2023/03/21 06:23:59;;;;;;;174.65;57.25;;;9.10;99.90;;;;;;5079086;28;20056;-70
2023/03/21 06:26:25;;;;;;;148.38;52.80;;;9.00;99.90;;;;;;5081633;28;20017;-71
2023/03/21 06:28:52;;;;;;;150.48;53.70;;;9.10;99.90;;;;;;5079852;28;20029;-71
2023/03/21 06:31:21;;;;;;;152.27;54.50;;;9.10;99.90;;;;;;5080992;28;20024;-70
2023/03/21 06:33:47;;;;;;;149.65;51.83;;;9.10;99.90;;;;;;5081341;28;20027;-70
2023/03/21 06:36:13;;;;;;;151.65;51.47;;;9.10;99.90;;;;;;5080613;28;20057;-70
2023/03/21 06:38:39;;;;;;;151.23;49.00;;;9.10;99.90;;;;;;5081182;28;20181;-70
2023/03/21 06:41:06;;;;;;;140.30;50.28;;;9.10;99.90;;;;;;5080362;28;20021;-69
2023/03/21 06:43:32;;;;;;;131.05;51.78;;;9.20;99.90;;;;;;5078209;28;20052;-70
2023/03/21 06:45:58;;;;;;;137.18;50.05;;;9.20;99.90;;;;;;5080685;28;20017;-69
2023/03/21 06:48:24;;;;;;;139.82;49.80;;;9.20;99.90;;;;;;5080601;28;20031;-69
2023/03/21 06:50:51;;;;;;;138.07;51.80;;;9.20;99.90;;;;;;5080675;28;20020;-69
2023/03/21 06:53:19;;;;;;;138.82;47.13;;;9.20;99.90;;;;;;5080818;28;20032;-69
2023/03/21 06:55:49;;;;;;;117.88;46.58;;;9.20;99.90;;;;;;5084592;28;20025;-70
2023/03/21 06:58:14;;;;;;;127.18;43.65;;;9.30;99.90;;;;;;5084282;28;20028;-69
2023/03/21 07:00:40;;;;;;;126.25;47.92;;;9.30;99.90;;;;;;5084477;28;20029;-69
2023/03/21 07:03:06;;;;;;;121.28;45.53;;;9.30;99.90;;;;;;5083894;28;20393;-70
2023/03/21 07:05:33;;;;;;;124.32;48.20;;;9.30;99.90;;;;;;5084129;28;20051;-68
2023/03/21 07:08:00;;;;;;;115.47;45.20;;;9.40;99.90;;;;;;5083908;28;20025;-70
2023/03/21 07:10:25;;;;;;;109.43;44.75;;;9.40;99.90;;;;;;5082780;28;20043;-69
2023/03/21 07:12:51;;;;;;;119.85;44.58;;;9.40;99.90;;;;;;5083530;28;20020;-69
2023/03/21 07:15:16;;;;;;;124.53;44.58;;;9.50;99.90;;;;;;5084078;28;20021;-69
2023/03/21 07:17:42;;;;;;;114.57;43.40;;;9.50;99.90;;;;;;5083910;28;20056;-68
2023/03/21 07:20:09;;;;;;;109.85;43.97;;;9.50;99.90;;;;;;5084379;28;20051;-68
2023/03/21 07:22:35;;;;;;;94.63;41.28;;;9.50;99.90;;;;;;5084093;28;20032;-68
2023/03/21 07:25:00;;;;;;;97.90;39.95;;;9.50;99.90;;;;;;5083281;28;20078;-69
2023/03/21 07:27:26;;;;;;;85.50;35.33;;;9.60;99.90;;;;;;5084100;28;20024;-69
2023/03/21 07:29:52;;;;;;;95.90;39.85;;;9.60;99.90;;;;;;5083763;28;20064;-68
2023/03/21 07:32:17;;;;;;;94.05;40.83;;;9.60;99.90;;;;;;5083822;28;20032;-69
2023/03/21 07:34:43;;;;;;;99.03;39.42;;;9.60;99.90;;;;;;5083395;28;20024;-70
2023/03/21 07:37:08;;;;;;;95.72;39.55;;;9.70;99.90;;;;;;5084066;28;20369;-70
2023/03/21 07:39:35;;;;;;;79.65;38.10;;;9.60;99.90;;;;;;5082428;28;20028;-70
2023/03/21 07:42:01;;;;;;;87.68;37.95;;;9.70;99.90;;;;;;5083553;28;20044;-70
2023/03/21 07:44:28;;;;;;;85.18;36.75;;;9.70;99.90;;;;;;5083552;28;20443;-70
2023/03/21 07:46:53;;;;;;;84.88;35.78;;;9.70;99.90;;;;;;5083397;28;20073;-70
2023/03/21 07:49:19;;;;;;;86.88;34.72;;;9.70;99.90;;;;;;5083666;28;20032;-70
2023/03/21 07:51:45;;;;;;;84.88;37.60;;;9.70;99.90;;;;;;5081462;28;20027;-70
2023/03/21 07:54:10;;;;;;;77.35;31.15;;;9.70;99.90;;;;;;5083294;28;20017;-71
2023/03/21 07:56:36;;;;;;;71.90;34.17;;;9.70;99.90;;;;;;5083754;28;20029;-71
2023/03/21 07:59:04;;;;;;;75.30;32.58;;;9.70;99.90;;;;;;5083031;28;20115;-70
2023/03/21 08:01:29;;;;;;;74.65;33.78;;;9.70;99.90;;;;;;5083354;28;20597;-70
2023/03/21 08:03:55;;;;;;;69.60;32.80;;;9.70;99.90;;;;;;5077931;28;20037;-72
2023/03/21 08:06:21;;;;;;;79.88;34.00;;;9.80;99.90;;;;;;5077877;28;20030;-69
2023/03/21 08:08:46;;;;;;;72.80;32.92;;;9.80;99.90;;;;;;5081303;28;20023;-70
2023/03/21 08:11:13;;;;;;;74.38;34.10;;;9.70;99.90;;;;;;5081162;28;20080;-69
2023/03/21 08:13:39;;;;;;;73.20;31.80;;;9.70;99.90;;;;;;5080033;28;20029;-72
2023/03/21 08:16:06;;;;;;;68.68;32.72;;;9.80;99.90;;;;;;5082415;28;20025;-70
2023/03/21 08:18:32;;;;;;;70.60;31.65;;;9.80;99.90;;;;;;5082038;28;20044;-70
2023/03/21 08:20:57;;;;;;;80.72;34.70;;;9.80;99.90;;;;;;5083047;28;20036;-70
2023/03/21 08:23:24;;;;;;;67.78;31.05;;;9.80;99.90;;;;;;5081716;28;20485;-71
2023/03/21 08:25:51;;;;;;;70.13;34.05;;;9.80;99.90;;;;;;5080543;28;20413;-70
2023/03/21 08:28:17;;;;;;;72.13;33.35;;;9.80;99.90;;;;;;5080245;28;20027;-71
2023/03/21 08:30:43;;;;;;;70.28;31.75;;;9.80;99.90;;;;;;5079070;28;20020;-70
2023/03/21 08:33:08;;;;;;;76.78;32.72;;;9.80;99.90;;;;;;5080834;28;20036;-70
2023/03/21 08:35:34;;;;;;;73.65;32.45;;;9.80;99.90;;;;;;5081099;28;20025;-71
2023/03/21 08:38:03;;;;;;;69.85;33.28;;;9.90;99.90;;;;;;5082446;28;20035;-70
2023/03/21 08:40:29;;;;;;;71.80;33.58;;;9.90;99.90;;;;;;5082235;28;20043;-70
2023/03/21 08:42:54;;;;;;;70.97;30.80;;;9.90;99.90;;;;;;5080836;28;20048;-70
2023/03/21 08:45:21;;;;;;;69.28;31.52;;;9.90;99.90;;;;;;5081866;28;20489;-71
2023/03/21 08:47:47;;;;;;;62.22;31.23;;;9.90;99.90;;;;;;5082545;28;20047;-69
2023/03/21 08:50:17;;;;;;;64.43;32.58;;;9.90;99.90;;;;;;5079017;28;20466;-71
2023/03/21 08:52:43;;;;;;;65.93;32.08;;;9.90;99.90;;;;;;5081707;28;20080;-70
2023/03/21 08:55:10;;;;;;;60.45;27.73;;;9.90;99.90;;;;;;5080803;28;20062;-71
2023/03/21 08:57:36;;;;;;;63.50;30.33;;;9.90;99.90;;;;;;5078928;28;20043;-71
2023/03/21 09:00:13;;;;;;;74.78;33.75;;;9.90;99.90;;;;;;5081707;28;20503;-70
2023/03/21 09:02:43;;;;;;;70.22;31.55;;;9.90;99.90;;;;;;5082179;28;20081;-70
2023/03/21 09:05:10;;;;;;;65.20;30.45;;;9.90;99.90;;;;;;5080424;28;20044;-71
2023/03/21 09:07:38;;;;;;;66.40;32.22;;;9.90;99.90;;;;;;5080535;28;20025;-70
2023/03/21 09:10:05;;;;;;;61.55;31.88;;;9.90;99.90;;;;;;5080001;28;20054;-69
2023/03/21 09:12:32;;;;;;;66.82;32.40;;;10.00;99.90;;;;;;5079985;28;20031;-69
2023/03/21 09:14:58;;;;;;;68.45;32.83;;;9.90;99.90;;;;;;5082033;28;20024;-69
2023/03/21 09:17:23;;;;;;;70.18;33.80;;;10.00;99.90;;;;;;5075203;28;20043;-70
2023/03/21 09:19:49;;;;;;;70.20;33.97;;;10.00;99.90;;;;;;5079483;28;20029;-71
2023/03/21 09:22:16;;;;;;;68.78;33.42;;;10.00;99.90;;;;;;5080054;28;20019;-68
2023/03/21 09:24:48;;;;;;;64.82;32.47;;;10.00;99.90;;;;;;5079417;28;20040;-70
2023/03/21 09:27:20;;;;;;;61.15;32.92;;;10.00;99.90;;;;;;5081710;28;20108;-68
2023/03/21 09:29:45;;;;;;;49.42;28.60;;;10.00;99.90;;;;;;5078893;28;20032;-70
2023/03/21 09:32:12;;;;;;;61.17;28.23;;;10.10;99.90;;;;;;5081687;28;20028;-71
2023/03/21 09:34:40;;;;;;;53.67;26.63;;;10.00;99.90;;;;;;5080103;28;20465;-70
2023/03/21 09:37:12;;;;;;;47.45;25.58;;;10.00;99.90;;;;;;5079391;28;20021;-69
2023/03/21 09:39:43;;;;;;;50.70;25.23;;;10.10;99.90;;;;;;5080806;28;20012;-70
2023/03/21 09:42:16;;;;;;;41.95;21.50;;;10.10;99.90;;;;;;5080600;28;20040;-69
2023/03/21 09:44:52;;;;;;;41.25;21.60;;;10.10;99.90;;;;;;5076714;28;20028;-69
2023/03/21 09:47:27;;;;;;;37.55;20.60;;;10.10;99.90;;;;;;5077459;28;20078;-70
2023/03/21 09:50:16;;;;;;;41.05;21.13;;;10.10;99.90;;;;;;5075112;28;20017;-70
2023/03/21 09:52:49;;;;;;;40.53;18.15;;;10.10;99.90;;;;;;5080459;28;20033;-70
2023/03/21 09:55:18;;;;;;;38.80;20.33;;;10.10;99.90;;;;;;5079246;28;20030;-71
2023/03/21 09:57:46;;;;;;;37.25;20.85;;;10.10;99.90;;;;;;5076387;28;20305;-72
2023/03/21 10:00:24;;;;;;;36.78;19.10;;;10.10;99.90;;;;;;5079737;28;20031;-70
2023/03/21 10:02:52;;;;;;;40.05;19.52;;;10.10;99.90;;;;;;5079234;28;20100;-70
2023/03/21 10:05:27;;;;;;;36.03;19.15;;;10.20;99.90;;;;;;5080344;28;20060;-69
2023/03/21 10:08:13;;;;;;;39.08;21.00;;;10.20;99.90;;;;;;5078954;28;20040;-69
2023/03/21 10:10:48;;;;;;;34.83;18.95;;;10.30;99.90;;;;;;5077742;28;20041;-69
2023/03/21 10:13:32;;;;;;;39.08;20.52;;;10.30;99.90;;;;;;5078290;28;20055;-71
2023/03/21 10:16:00;;;;;;;39.65;20.92;;;10.40;99.90;;;;;;5081215;28;20063;-69
2023/03/21 10:18:29;;;;;;;37.42;18.75;;;10.40;99.90;;;;;;5078338;28;20029;-70
2023/03/21 10:20:56;;;;;;;32.10;16.15;;;10.50;99.90;;;;;;5080412;28;20429;-70
2023/03/21 10:23:29;;;;;;;33.33;17.38;;;10.50;99.90;;;;;;5077887;28;20385;-70
2023/03/21 10:26:00;;;;;;;37.42;20.05;;;10.50;99.90;;;;;;5078449;28;20059;-71
2023/03/21 10:28:30;;;;;;;34.75;18.30;;;10.60;99.90;;;;;;5080256;28;20029;-68
2023/03/21 10:30:59;;;;;;;32.78;17.85;;;10.60;99.90;;;;;;5085251;28;20077;-69
2023/03/21 10:33:28;;;;;;;37.72;18.33;;;10.60;99.90;;;;;;5082878;28;20027;-69
2023/03/21 10:36:01;;;;;;;38.10;18.17;;;10.60;99.90;;;;;;5083816;28;20067;-69
2023/03/21 10:38:28;;;;;;;32.75;17.55;;;10.50;99.90;;;;;;5083277;28;20029;-69
2023/03/21 10:40:54;;;;;;;39.40;20.17;;;10.50;99.90;;;;;;5082285;28;20021;-71
2023/03/21 10:43:26;;;;;;;44.00;21.33;;;10.60;99.90;;;;;;5081757;28;20045;-68
2023/03/21 10:45:53;;;;;;;40.70;22.63;;;10.50;99.90;;;;;;5081861;28;20033;-70
2023/03/21 10:48:19;;;;;;;40.20;21.33;;;10.50;99.90;;;;;;5083276;28;20035;-69
2023/03/21 10:50:50;;;;;;;49.10;25.13;;;10.50;99.90;;;;;;5084121;28;20021;-72
2023/03/21 10:53:29;;;;;;;51.25;24.23;;;10.40;99.90;;;;;;5082658;28;20043;-70
2023/03/21 10:55:57;;;;;;;47.75;25.92;;;10.40;99.90;;;;;;5084660;28;20020;-69
2023/03/21 10:58:29;;;;;;;55.65;25.40;;;10.40;99.90;;;;;;5082895;28;20099;-70
2023/03/21 11:01:02;;;;;;;54.50;26.13;;;10.40;99.90;;;;;;5082699;28;20087;-69
2023/03/21 11:03:42;;;;;;;50.60;24.87;;;10.40;99.90;;;;;;5076640;28;20036;-71
2023/03/21 11:06:13;;;;;;;49.92;25.90;;;10.40;99.90;;;;;;5081056;28;20050;-71
2023/03/21 11:08:50;;;;;;;57.45;24.88;;;10.40;99.90;;;;;;5080214;28;20040;-71
2023/03/21 11:11:24;;;;;;;45.25;23.25;;;10.40;99.90;;;;;;5080494;28;20040;-74
2023/03/21 11:14:05;;;;;;;51.80;26.10;;;10.40;99.90;;;;;;5081432;28;20032;-71
2023/03/21 11:16:42;;;;;;;52.35;25.10;;;10.30;99.90;;;;;;5082547;28;20047;-71
2023/03/21 11:19:17;;;;;;;53.65;24.35;;;10.30;99.90;;;;;;5084351;28;20032;-72
2023/03/21 11:21:44;;;;;;;44.92;22.35;;;10.30;99.90;;;;;;5082515;28;20055;-73
2023/03/21 11:24:14;;;;;;;46.00;22.38;;;10.30;99.90;;;;;;5081846;28;20047;-71
2023/03/21 11:26:43;;;;;;;40.95;22.58;;;10.30;99.90;;;;;;5082369;28;20036;-73
2023/03/21 11:29:33;;;;;;;44.00;21.60;;;10.20;99.90;;;;;;5080610;28;20435;-73
2023/03/21 11:32:29;;;;;;;38.60;20.67;;;10.30;99.90;;;;;;5082218;28;20111;-72
2023/03/21 11:35:04;;;;;;;41.28;22.02;;;10.30;99.90;;;;;;5083378;28;20044;-74
2023/03/21 11:37:37;;;;;;;43.10;21.98;;;10.40;99.90;;;;;;5084155;28;20020;-72
2023/03/21 11:40:27;;;;;;;45.70;22.55;;;10.40;99.90;;;;;;5082734;28;20094;-72
2023/03/21 11:42:55;;;;;;;41.75;22.20;;;10.40;99.90;;;;;;5082352;28;20044;-72
2023/03/21 11:45:24;;;;;;;45.70;23.58;;;10.40;99.90;;;;;;5082924;28;20037;-73
2023/03/21 11:47:52;;;;;;;46.13;24.20;;;10.50;99.90;;;;;;5084053;28;20047;-73
2023/03/21 11:50:40;;;;;;;38.00;19.13;;;10.60;99.90;;;;;;5082382;28;20032;-73
2023/03/21 11:53:29;;;;;;;41.08;21.02;;;10.60;99.90;;;;;;5078094;28;20028;-71
2023/03/21 11:56:22;;;;;;;41.78;20.02;;;10.70;99.90;;;;;;5082916;28;20024;-72
2023/03/21 11:59:25;;;;;;;35.20;18.70;;;10.60;99.90;;;;;;5082328;28;20020;-72
2023/03/21 12:02:01;;;;;;;46.13;23.65;;;10.60;99.90;;;;;;5083037;28;20100;-72
2023/03/21 12:04:53;;;;;;;46.30;23.13;;;10.60;99.90;;;;;;5083400;28;20041;-72
2023/03/21 12:07:53;;;;;;;42.65;20.70;;;10.60;99.90;;;;;;5081976;28;20032;-73
2023/03/21 12:10:21;;;;;;;40.00;21.48;;;10.70;99.90;;;;;;5081608;28;20024;-70
2023/03/21 12:13:06;;;;;;;40.85;20.52;;;10.60;99.90;;;;;;5080561;28;20025;-71
2023/03/21 12:15:54;;;;;;;41.30;20.75;;;10.70;99.90;;;;;;5081846;28;20051;-72
2023/03/21 12:18:32;;;;;;;46.47;22.00;;;10.70;99.90;;;;;;5079381;28;20028;-73
2023/03/21 12:21:05;;;;;;;49.60;22.95;;;10.70;99.90;;;;;;5081200;28;20033;-71
2023/03/21 12:24:12;;;;;;;43.70;21.48;;;10.80;99.90;;;;;;5082775;28;20032;-72
2023/03/21 12:26:55;;;;;;;42.22;23.35;;;10.70;99.90;;;;;;5083318;28;20044;-74
2023/03/21 12:29:53;;;;;;;43.92;22.85;;;10.70;99.90;;;;;;5082191;28;20370;-72
2023/03/21 12:32:24;;;;;;;39.38;21.05;;;10.70;99.90;;;;;;5075087;28;20032;-73
2023/03/21 12:35:20;;;;;;;48.10;21.15;;;10.60;99.90;;;;;;5086307;28;20099;-73
2023/03/21 12:38:09;;;;;;;42.72;23.75;;;10.70;99.90;;;;;;5084703;28;20035;-75
2023/03/21 12:41:12;;;;;;;45.28;23.50;;;10.60;99.90;;;;;;5083146;28;20032;-72
2023/03/21 12:43:56;;;;;;;52.40;26.83;;;10.60;99.90;;;;;;5082611;28;20048;-72
2023/03/21 12:46:43;;;;;;;44.17;25.17;;;10.60;99.90;;;;;;5080506;28;20046;-72
2023/03/21 12:49:21;;;;;;;49.35;26.42;;;10.60;99.90;;;;;;5082066;28;20046;-74
2023/03/21 12:51:52;;;;;;;52.53;25.38;;;10.70;99.90;;;;;;5080793;28;20024;-72